sensor_id;sensor_type;location;lat;lon;timestamp;P1;durP1;ratioP1;P2;durP2;ratioP2
21168;SDS011;10742;51.816;8.662;2023-02-17T00:01:21;16.43;;;6.90;;
21168;SDS011;10742;51.816;8.662;2023-02-17T00:04:26;14.37;;;6.67;;
21168;SDS011;10742;51.816;8.662;2023-02-17T00:07:30;17.37;;;7.37;;
21168;SDS011;10742;51.816;8.662;2023-02-17T00:10:33;13.37;;;6.67;;
21168;SDS011;10742;51.816;8.662;2023-02-17T00:13:35;12.40;;;6.60;;
21168;SDS011;10742;51.816;8.662;2023-02-17T00:16:38;15.97;;;6.73;;
21168;SDS011;10742;51.816;8.662;2023-02-17T00:19:41;11.90;;;6.23;;
21168;SDS011;10742;51.816;8.662;2023-02-17T00:22:43;10.17;;;6.20;;
21168;SDS011;10742;51.816;8.662;2023-02-17T00:25:45;13.63;;;6.73;;
21168;SDS011;10742;51.816;8.662;2023-02-17T00:28:48;12.03;;;6.13;;
21168;SDS011;10742;51.816;8.662;2023-02-17T00:31:51;13.10;;;6.57;;
21168;SDS011;10742;51.816;8.662;2023-02-17T00:34:56;14.30;;;7.13;;
21168;SDS011;10742;51.816;8.662;2023-02-17T00:37:59;13.57;;;6.63;;
21168;SDS011;10742;51.816;8.662;2023-02-17T00:41:02;12.90;;;6.77;;
21168;SDS011;10742;51.816;8.662;2023-02-17T00:44:05;12.27;;;6.90;;
21168;SDS011;10742;51.816;8.662;2023-02-17T00:47:07;11.60;;;6.23;;
21168;SDS011;10742;51.816;8.662;2023-02-17T00:50:09;11.47;;;6.27;;
21168;SDS011;10742;51.816;8.662;2023-02-17T00:53:11;12.53;;;6.33;;
21168;SDS011;10742;51.816;8.662;2023-02-17T00:56:14;11.43;;;6.13;;
21168;SDS011;10742;51.816;8.662;2023-02-17T00:59:18;13.33;;;7.07;;
21168;SDS011;10742;51.816;8.662;2023-02-17T01:02:20;12.40;;;5.97;;
21168;SDS011;10742;51.816;8.662;2023-02-17T01:05:22;12.67;;;6.50;;
21168;SDS011;10742;51.816;8.662;2023-02-17T01:08:25;14.37;;;6.53;;
21168;SDS011;10742;51.816;8.662;2023-02-17T01:11:28;11.67;;;6.47;;
21168;SDS011;10742;51.816;8.662;2023-02-17T01:14:32;14.80;;;6.07;;
21168;SDS011;10742;51.816;8.662;2023-02-17T01:17:34;14.40;;;6.77;;
21168;SDS011;10742;51.816;8.662;2023-02-17T01:20:37;13.47;;;6.77;;
21168;SDS011;10742;51.816;8.662;2023-02-17T01:23:40;12.90;;;6.60;;
21168;SDS011;10742;51.816;8.662;2023-02-17T01:26:42;14.30;;;7.17;;
21168;SDS011;10742;51.816;8.662;2023-02-17T01:29:44;13.33;;;6.80;;
21168;SDS011;10742;51.816;8.662;2023-02-17T01:32:47;12.03;;;7.07;;
21168;SDS011;10742;51.816;8.662;2023-02-17T01:35:49;12.23;;;6.90;;
21168;SDS011;10742;51.816;8.662;2023-02-17T01:38:51;15.17;;;7.17;;
21168;SDS011;10742;51.816;8.662;2023-02-17T01:41:54;15.33;;;7.47;;
21168;SDS011;10742;51.816;8.662;2023-02-17T01:48:19;15.90;;;7.50;;
21168;SDS011;10742;51.816;8.662;2023-02-17T01:51:25;14.13;;;7.53;;
21168;SDS011;10742;51.816;8.662;2023-02-17T01:54:37;13.23;;;7.10;;
21168;SDS011;10742;51.816;8.662;2023-02-17T01:57:43;14.53;;;7.60;;
21168;SDS011;10742;51.816;8.662;2023-02-17T02:00:48;15.00;;;7.70;;
21168;SDS011;10742;51.816;8.662;2023-02-17T02:03:54;15.17;;;7.87;;
21168;SDS011;10742;51.816;8.662;2023-02-17T02:06:56;14.97;;;7.53;;
21168;SDS011;10742;51.816;8.662;2023-02-17T02:09:59;17.73;;;7.97;;
21168;SDS011;10742;51.816;8.662;2023-02-17T02:13:02;17.87;;;8.60;;
21168;SDS011;10742;51.816;8.662;2023-02-17T02:16:08;15.40;;;7.90;;
21168;SDS011;10742;51.816;8.662;2023-02-17T02:32:58;18.27;;;8.37;;
21168;SDS011;10742;51.816;8.662;2023-02-17T02:36:18;18.43;;;9.27;;
21168;SDS011;10742;51.816;8.662;2023-02-17T02:39:34;19.20;;;9.80;;
21168;SDS011;10742;51.816;8.662;2023-02-17T02:42:42;18.30;;;9.23;;
21168;SDS011;10742;51.816;8.662;2023-02-17T02:45:45;18.57;;;10.00;;
21168;SDS011;10742;51.816;8.662;2023-02-17T02:48:49;20.73;;;10.07;;
21168;SDS011;10742;51.816;8.662;2023-02-17T02:51:54;24.47;;;10.93;;
21168;SDS011;10742;51.816;8.662;2023-02-17T03:05:50;23.17;;;12.23;;
21168;SDS011;10742;51.816;8.662;2023-02-17T03:09:21;21.53;;;11.00;;
21168;SDS011;10742;51.816;8.662;2023-02-17T03:12:26;22.90;;;11.13;;
21168;SDS011;10742;51.816;8.662;2023-02-17T03:15:31;35.20;;;14.60;;
21168;SDS011;10742;51.816;8.662;2023-02-17T03:18:35;30.83;;;14.83;;
21168;SDS011;10742;51.816;8.662;2023-02-17T03:21:39;31.10;;;16.20;;
21168;SDS011;10742;51.816;8.662;2023-02-17T03:24:53;25.60;;;14.47;;
21168;SDS011;10742;51.816;8.662;2023-02-17T03:27:56;27.07;;;14.87;;
21168;SDS011;10742;51.816;8.662;2023-02-17T03:30:58;39.37;;;17.17;;
21168;SDS011;10742;51.816;8.662;2023-02-17T03:34:01;55.70;;;19.30;;
21168;SDS011;10742;51.816;8.662;2023-02-17T03:37:04;39.27;;;18.77;;
21168;SDS011;10742;51.816;8.662;2023-02-17T03:40:07;39.83;;;18.60;;
21168;SDS011;10742;51.816;8.662;2023-02-17T03:43:09;59.80;;;20.40;;
21168;SDS011;10742;51.816;8.662;2023-02-17T03:46:12;47.63;;;19.40;;
21168;SDS011;10742;51.816;8.662;2023-02-17T03:49:18;39.43;;;19.33;;
21168;SDS011;10742;51.816;8.662;2023-02-17T03:52:20;39.07;;;19.77;;
21168;SDS011;10742;51.816;8.662;2023-02-17T03:55:23;49.83;;;21.93;;
21168;SDS011;10742;51.816;8.662;2023-02-17T03:58:25;47.70;;;20.17;;
21168;SDS011;10742;51.816;8.662;2023-02-17T04:01:27;49.57;;;22.43;;
21168;SDS011;10742;51.816;8.662;2023-02-17T04:04:30;53.27;;;19.97;;
21168;SDS011;10742;51.816;8.662;2023-02-17T04:07:32;68.37;;;24.37;;
21168;SDS011;10742;51.816;8.662;2023-02-17T04:10:34;67.50;;;24.63;;
21168;SDS011;10742;51.816;8.662;2023-02-17T04:13:37;60.27;;;23.37;;
21168;SDS011;10742;51.816;8.662;2023-02-17T04:16:39;51.63;;;20.63;;
21168;SDS011;10742;51.816;8.662;2023-02-17T04:19:42;62.97;;;23.47;;
21168;SDS011;10742;51.816;8.662;2023-02-17T04:22:44;56.37;;;24.57;;
21168;SDS011;10742;51.816;8.662;2023-02-17T04:25:47;46.27;;;22.70;;
21168;SDS011;10742;51.816;8.662;2023-02-17T04:28:50;46.97;;;24.17;;
21168;SDS011;10742;51.816;8.662;2023-02-17T04:31:52;43.80;;;18.30;;
21168;SDS011;10742;51.816;8.662;2023-02-17T04:34:54;35.87;;;19.77;;
21168;SDS011;10742;51.816;8.662;2023-02-17T04:37:57;32.33;;;18.60;;
21168;SDS011;10742;51.816;8.662;2023-02-17T04:40:59;40.27;;;20.23;;
21168;SDS011;10742;51.816;8.662;2023-02-17T04:44:02;46.23;;;18.77;;
21168;SDS011;10742;51.816;8.662;2023-02-17T04:47:04;39.40;;;21.27;;
21168;SDS011;10742;51.816;8.662;2023-02-17T04:50:07;37.70;;;18.87;;
21168;SDS011;10742;51.816;8.662;2023-02-17T04:53:10;40.37;;;20.43;;
21168;SDS011;10742;51.816;8.662;2023-02-17T04:56:14;42.03;;;17.57;;
21168;SDS011;10742;51.816;8.662;2023-02-17T04:59:16;30.77;;;16.50;;
21168;SDS011;10742;51.816;8.662;2023-02-17T05:02:19;51.60;;;19.93;;
21168;SDS011;10742;51.816;8.662;2023-02-17T05:05:21;27.83;;;13.63;;
21168;SDS011;10742;51.816;8.662;2023-02-17T05:08:24;31.20;;;14.43;;
21168;SDS011;10742;51.816;8.662;2023-02-17T05:11:26;25.27;;;12.90;;
21168;SDS011;10742;51.816;8.662;2023-02-17T05:14:28;24.30;;;13.93;;
21168;SDS011;10742;51.816;8.662;2023-02-17T05:17:31;24.23;;;11.97;;
21168;SDS011;10742;51.816;8.662;2023-02-17T05:20:33;27.03;;;12.63;;
21168;SDS011;10742;51.816;8.662;2023-02-17T05:23:36;24.83;;;12.70;;
21168;SDS011;10742;51.816;8.662;2023-02-17T05:26:42;24.80;;;11.57;;
21168;SDS011;10742;51.816;8.662;2023-02-17T05:29:44;22.37;;;10.93;;
21168;SDS011;10742;51.816;8.662;2023-02-17T05:32:47;19.67;;;9.90;;
21168;SDS011;10742;51.816;8.662;2023-02-17T05:35:49;21.17;;;9.57;;
21168;SDS011;10742;51.816;8.662;2023-02-17T05:38:51;21.03;;;10.00;;
21168;SDS011;10742;51.816;8.662;2023-02-17T05:41:54;19.30;;;9.57;;
21168;SDS011;10742;51.816;8.662;2023-02-17T05:44:57;16.30;;;8.53;;
21168;SDS011;10742;51.816;8.662;2023-02-17T05:47:59;18.93;;;8.93;;
21168;SDS011;10742;51.816;8.662;2023-02-17T05:51:02;17.17;;;8.97;;
21168;SDS011;10742;51.816;8.662;2023-02-17T05:54:04;15.27;;;7.97;;
21168;SDS011;10742;51.816;8.662;2023-02-17T05:57:06;16.37;;;7.83;;
21168;SDS011;10742;51.816;8.662;2023-02-17T06:00:09;17.80;;;8.50;;
21168;SDS011;10742;51.816;8.662;2023-02-17T06:03:15;15.23;;;7.30;;
21168;SDS011;10742;51.816;8.662;2023-02-17T06:06:17;14.40;;;7.43;;
21168;SDS011;10742;51.816;8.662;2023-02-17T06:09:20;15.17;;;7.33;;
21168;SDS011;10742;51.816;8.662;2023-02-17T06:12:22;15.10;;;8.10;;
21168;SDS011;10742;51.816;8.662;2023-02-17T06:15:25;13.03;;;7.17;;
21168;SDS011;10742;51.816;8.662;2023-02-17T06:18:27;13.87;;;7.60;;
21168;SDS011;10742;51.816;8.662;2023-02-17T06:21:30;14.03;;;7.07;;
21168;SDS011;10742;51.816;8.662;2023-02-17T06:24:32;13.90;;;6.90;;
21168;SDS011;10742;51.816;8.662;2023-02-17T06:27:35;12.03;;;6.70;;
21168;SDS011;10742;51.816;8.662;2023-02-17T06:30:37;13.13;;;6.60;;
21168;SDS011;10742;51.816;8.662;2023-02-17T06:33:40;15.10;;;7.17;;
21168;SDS011;10742;51.816;8.662;2023-02-17T06:36:42;14.23;;;7.20;;
21168;SDS011;10742;51.816;8.662;2023-02-17T06:39:45;11.27;;;6.63;;
21168;SDS011;10742;51.816;8.662;2023-02-17T06:42:47;14.87;;;7.77;;
21168;SDS011;10742;51.816;8.662;2023-02-17T06:45:50;12.73;;;7.37;;
21168;SDS011;10742;51.816;8.662;2023-02-17T06:48:52;12.70;;;7.10;;
21168;SDS011;10742;51.816;8.662;2023-02-17T06:51:55;12.83;;;7.37;;
21168;SDS011;10742;51.816;8.662;2023-02-17T06:54:57;15.53;;;6.90;;
21168;SDS011;10742;51.816;8.662;2023-02-17T06:58:00;15.93;;;7.83;;
21168;SDS011;10742;51.816;8.662;2023-02-17T07:01:03;13.60;;;7.70;;
21168;SDS011;10742;51.816;8.662;2023-02-17T07:04:05;17.83;;;7.73;;
21168;SDS011;10742;51.816;8.662;2023-02-17T07:07:08;14.77;;;7.93;;
21168;SDS011;10742;51.816;8.662;2023-02-17T07:10:11;15.37;;;7.97;;
21168;SDS011;10742;51.816;8.662;2023-02-17T07:13:14;13.77;;;7.70;;
21168;SDS011;10742;51.816;8.662;2023-02-17T07:16:16;13.63;;;7.60;;
21168;SDS011;10742;51.816;8.662;2023-02-17T07:19:19;16.77;;;8.20;;
21168;SDS011;10742;51.816;8.662;2023-02-17T07:22:21;17.80;;;8.03;;
21168;SDS011;10742;51.816;8.662;2023-02-17T07:25:26;16.30;;;8.70;;
21168;SDS011;10742;51.816;8.662;2023-02-17T07:28:28;14.20;;;7.90;;
21168;SDS011;10742;51.816;8.662;2023-02-17T07:31:31;14.47;;;7.80;;
21168;SDS011;10742;51.816;8.662;2023-02-17T07:34:34;16.00;;;8.30;;
21168;SDS011;10742;51.816;8.662;2023-02-17T07:37:38;16.33;;;8.30;;
21168;SDS011;10742;51.816;8.662;2023-02-17T07:40:40;19.30;;;8.03;;
21168;SDS011;10742;51.816;8.662;2023-02-17T07:43:42;14.57;;;7.73;;
21168;SDS011;10742;51.816;8.662;2023-02-17T07:46:46;15.50;;;8.23;;
21168;SDS011;10742;51.816;8.662;2023-02-17T07:49:48;16.00;;;8.10;;
21168;SDS011;10742;51.816;8.662;2023-02-17T07:52:51;16.77;;;7.60;;
21168;SDS011;10742;51.816;8.662;2023-02-17T07:55:54;15.23;;;8.27;;
21168;SDS011;10742;51.816;8.662;2023-02-17T07:58:56;15.03;;;8.13;;
21168;SDS011;10742;51.816;8.662;2023-02-17T08:01:59;15.80;;;8.50;;
21168;SDS011;10742;51.816;8.662;2023-02-17T08:05:01;14.70;;;7.67;;
21168;SDS011;10742;51.816;8.662;2023-02-17T08:08:04;15.53;;;7.70;;
21168;SDS011;10742;51.816;8.662;2023-02-17T08:11:25;15.83;;;7.97;;
21168;SDS011;10742;51.816;8.662;2023-02-17T08:14:49;16.03;;;7.90;;
21168;SDS011;10742;51.816;8.662;2023-02-17T08:17:51;15.20;;;7.83;;
21168;SDS011;10742;51.816;8.662;2023-02-17T08:20:54;17.13;;;8.10;;
21168;SDS011;10742;51.816;8.662;2023-02-17T08:23:56;14.00;;;7.57;;
21168;SDS011;10742;51.816;8.662;2023-02-17T08:27:00;14.30;;;7.90;;
21168;SDS011;10742;51.816;8.662;2023-02-17T08:30:03;13.77;;;7.47;;
21168;SDS011;10742;51.816;8.662;2023-02-17T08:33:06;13.87;;;7.93;;
21168;SDS011;10742;51.816;8.662;2023-02-17T08:36:09;15.50;;;8.17;;
21168;SDS011;10742;51.816;8.662;2023-02-17T08:39:13;17.23;;;7.77;;
21168;SDS011;10742;51.816;8.662;2023-02-17T08:42:18;15.77;;;8.30;;
21168;SDS011;10742;51.816;8.662;2023-02-17T08:45:20;18.33;;;8.07;;
21168;SDS011;10742;51.816;8.662;2023-02-17T08:48:23;15.43;;;8.03;;
21168;SDS011;10742;51.816;8.662;2023-02-17T08:51:26;19.57;;;8.53;;
21168;SDS011;10742;51.816;8.662;2023-02-17T08:54:29;15.27;;;8.50;;
21168;SDS011;10742;51.816;8.662;2023-02-17T08:57:32;17.53;;;8.60;;
21168;SDS011;10742;51.816;8.662;2023-02-17T09:00:35;14.73;;;7.40;;
21168;SDS011;10742;51.816;8.662;2023-02-17T09:03:39;19.27;;;9.07;;
21168;SDS011;10742;51.816;8.662;2023-02-17T09:06:46;15.07;;;7.57;;
21168;SDS011;10742;51.816;8.662;2023-02-17T09:09:53;14.03;;;8.13;;
21168;SDS011;10742;51.816;8.662;2023-02-17T09:12:56;16.43;;;7.80;;
21168;SDS011;10742;51.816;8.662;2023-02-17T09:15:59;14.20;;;8.60;;
21168;SDS011;10742;51.816;8.662;2023-02-17T09:19:01;16.53;;;8.63;;
21168;SDS011;10742;51.816;8.662;2023-02-17T09:22:05;15.57;;;8.30;;
21168;SDS011;10742;51.816;8.662;2023-02-17T09:25:07;15.90;;;8.10;;
21168;SDS011;10742;51.816;8.662;2023-02-17T09:28:10;14.87;;;8.63;;
21168;SDS011;10742;51.816;8.662;2023-02-17T09:31:18;15.50;;;8.07;;
21168;SDS011;10742;51.816;8.662;2023-02-17T09:34:23;15.03;;;8.47;;
21168;SDS011;10742;51.816;8.662;2023-02-17T09:37:25;15.90;;;8.30;;
21168;SDS011;10742;51.816;8.662;2023-02-17T09:40:44;13.50;;;7.73;;
21168;SDS011;10742;51.816;8.662;2023-02-17T09:43:49;14.73;;;8.67;;
21168;SDS011;10742;51.816;8.662;2023-02-17T09:46:58;17.03;;;9.57;;
21168;SDS011;10742;51.816;8.662;2023-02-17T09:50:06;19.20;;;8.77;;
21168;SDS011;10742;51.816;8.662;2023-02-17T09:53:20;19.33;;;9.80;;
21168;SDS011;10742;51.816;8.662;2023-02-17T09:56:44;15.17;;;8.33;;
21168;SDS011;10742;51.816;8.662;2023-02-17T09:59:52;18.47;;;8.70;;
21168;SDS011;10742;51.816;8.662;2023-02-17T10:03:06;33.90;;;10.50;;
21168;SDS011;10742;51.816;8.662;2023-02-17T10:06:14;17.03;;;9.60;;
21168;SDS011;10742;51.816;8.662;2023-02-17T10:09:33;16.47;;;8.63;;
21168;SDS011;10742;51.816;8.662;2023-02-17T10:12:48;20.17;;;9.20;;
21168;SDS011;10742;51.816;8.662;2023-02-17T10:15:54;16.57;;;9.23;;
21168;SDS011;10742;51.816;8.662;2023-02-17T10:19:03;19.63;;;10.37;;
21168;SDS011;10742;51.816;8.662;2023-02-17T10:22:15;20.67;;;9.80;;
21168;SDS011;10742;51.816;8.662;2023-02-17T10:32:44;17.40;;;8.20;;
21168;SDS011;10742;51.816;8.662;2023-02-17T10:42:49;17.77;;;7.70;;
21168;SDS011;10742;51.816;8.662;2023-02-17T10:46:07;15.83;;;7.27;;
21168;SDS011;10742;51.816;8.662;2023-02-17T10:49:13;18.70;;;7.80;;
21168;SDS011;10742;51.816;8.662;2023-02-17T10:52:26;21.73;;;10.43;;
21168;SDS011;10742;51.816;8.662;2023-02-17T10:59:12;14.57;;;6.80;;
21168;SDS011;10742;51.816;8.662;2023-02-17T11:02:28;10.53;;;6.63;;
21168;SDS011;10742;51.816;8.662;2023-02-17T11:05:37;14.83;;;7.47;;
21168;SDS011;10742;51.816;8.662;2023-02-17T11:08:44;10.87;;;6.20;;
21168;SDS011;10742;51.816;8.662;2023-02-17T11:15:04;12.73;;;7.20;;
21168;SDS011;10742;51.816;8.662;2023-02-17T11:18:19;12.30;;;6.73;;
21168;SDS011;10742;51.816;8.662;2023-02-17T11:21:27;10.63;;;6.70;;
21168;SDS011;10742;51.816;8.662;2023-02-17T11:24:32;14.30;;;7.63;;
21168;SDS011;10742;51.816;8.662;2023-02-17T11:27:35;14.07;;;7.53;;
21168;SDS011;10742;51.816;8.662;2023-02-17T11:30:47;15.27;;;7.50;;
21168;SDS011;10742;51.816;8.662;2023-02-17T11:33:51;14.60;;;7.87;;
21168;SDS011;10742;51.816;8.662;2023-02-17T11:36:57;15.37;;;7.83;;
21168;SDS011;10742;51.816;8.662;2023-02-17T11:40:21;18.73;;;7.47;;
21168;SDS011;10742;51.816;8.662;2023-02-17T11:43:28;12.83;;;7.73;;
21168;SDS011;10742;51.816;8.662;2023-02-17T11:56:15;12.93;;;7.10;;
21168;SDS011;10742;51.816;8.662;2023-02-17T11:59:46;12.17;;;6.97;;
21168;SDS011;10742;51.816;8.662;2023-02-17T12:03:20;11.07;;;6.97;;
21168;SDS011;10742;51.816;8.662;2023-02-17T12:06:32;13.20;;;6.73;;
21168;SDS011;10742;51.816;8.662;2023-02-17T12:17:12;14.40;;;7.10;;
21168;SDS011;10742;51.816;8.662;2023-02-17T12:37:33;14.47;;;7.43;;
21168;SDS011;10742;51.816;8.662;2023-02-17T12:40:54;12.83;;;7.40;;
21168;SDS011;10742;51.816;8.662;2023-02-17T12:44:12;15.30;;;7.63;;
21168;SDS011;10742;51.816;8.662;2023-02-17T12:50:59;14.27;;;7.80;;
21168;SDS011;10742;51.816;8.662;2023-02-17T12:54:19;12.93;;;6.97;;
21168;SDS011;10742;51.816;8.662;2023-02-17T12:57:26;13.07;;;7.30;;
21168;SDS011;10742;51.816;8.662;2023-02-17T13:00:32;12.73;;;6.83;;
21168;SDS011;10742;51.816;8.662;2023-02-17T13:03:35;10.80;;;6.50;;
21168;SDS011;10742;51.816;8.662;2023-02-17T13:06:39;13.00;;;7.30;;
21168;SDS011;10742;51.816;8.662;2023-02-17T13:09:46;12.70;;;7.10;;
21168;SDS011;10742;51.816;8.662;2023-02-17T13:16:40;14.53;;;7.10;;
21168;SDS011;10742;51.816;8.662;2023-02-17T13:19:45;11.83;;;6.73;;
21168;SDS011;10742;51.816;8.662;2023-02-17T13:22:49;11.30;;;7.07;;
21168;SDS011;10742;51.816;8.662;2023-02-17T13:26:00;14.07;;;7.83;;
21168;SDS011;10742;51.816;8.662;2023-02-17T13:32:26;16.43;;;7.40;;
21168;SDS011;10742;51.816;8.662;2023-02-17T13:35:39;12.37;;;6.93;;
21168;SDS011;10742;51.816;8.662;2023-02-17T13:38:50;12.90;;;7.10;;
21168;SDS011;10742;51.816;8.662;2023-02-17T13:41:58;13.60;;;6.80;;
21168;SDS011;10742;51.816;8.662;2023-02-17T13:48:33;12.30;;;6.67;;
21168;SDS011;10742;51.816;8.662;2023-02-17T13:51:36;13.03;;;7.23;;
21168;SDS011;10742;51.816;8.662;2023-02-17T13:54:39;12.30;;;6.73;;
21168;SDS011;10742;51.816;8.662;2023-02-17T13:57:56;14.13;;;7.60;;
21168;SDS011;10742;51.816;8.662;2023-02-17T14:01:01;16.40;;;7.50;;
21168;SDS011;10742;51.816;8.662;2023-02-17T14:04:05;13.03;;;7.33;;
21168;SDS011;10742;51.816;8.662;2023-02-17T14:07:20;11.67;;;7.10;;
21168;SDS011;10742;51.816;8.662;2023-02-17T14:10:23;12.93;;;7.13;;
21168;SDS011;10742;51.816;8.662;2023-02-17T14:13:28;10.57;;;6.00;;
21168;SDS011;10742;51.816;8.662;2023-02-17T14:16:37;13.10;;;6.30;;
21168;SDS011;10742;51.816;8.662;2023-02-17T14:19:43;12.27;;;5.73;;
21168;SDS011;10742;51.816;8.662;2023-02-17T14:22:57;11.83;;;6.53;;
21168;SDS011;10742;51.816;8.662;2023-02-17T14:26:10;9.63;;;5.53;;
21168;SDS011;10742;51.816;8.662;2023-02-17T14:29:14;13.43;;;7.43;;
21168;SDS011;10742;51.816;8.662;2023-02-17T14:32:30;12.80;;;7.53;;
21168;SDS011;10742;51.816;8.662;2023-02-17T15:24:52;14.63;;;7.93;;
21168;SDS011;10742;51.816;8.662;2023-02-17T15:27:56;79.33;;;31.50;;
21168;SDS011;10742;51.816;8.662;2023-02-17T15:30:58;221.10;;;79.70;;
21168;SDS011;10742;51.816;8.662;2023-02-17T15:34:04;301.83;;;111.33;;
21168;SDS011;10742;51.816;8.662;2023-02-17T15:37:12;370.73;;;127.83;;
21168;SDS011;10742;51.816;8.662;2023-02-17T15:40:25;464.27;;;162.87;;
21168;SDS011;10742;51.816;8.662;2023-02-17T15:43:34;357.90;;;114.67;;
21168;SDS011;10742;51.816;8.662;2023-02-17T15:46:42;275.07;;;92.10;;
21168;SDS011;10742;51.816;8.662;2023-02-17T15:49:46;265.87;;;96.47;;
21168;SDS011;10742;51.816;8.662;2023-02-17T15:52:49;203.60;;;76.20;;
21168;SDS011;10742;51.816;8.662;2023-02-17T15:55:51;293.77;;;105.27;;
21168;SDS011;10742;51.816;8.662;2023-02-17T15:58:54;196.20;;;73.60;;
21168;SDS011;10742;51.816;8.662;2023-02-17T16:01:59;107.10;;;43.93;;
21168;SDS011;10742;51.816;8.662;2023-02-17T16:05:03;90.47;;;35.57;;
21168;SDS011;10742;51.816;8.662;2023-02-17T16:08:05;85.93;;;32.90;;
21168;SDS011;10742;51.816;8.662;2023-02-17T16:11:10;54.13;;;25.67;;
21168;SDS011;10742;51.816;8.662;2023-02-17T16:14:24;34.80;;;19.27;;
21168;SDS011;10742;51.816;8.662;2023-02-17T16:17:39;29.67;;;15.67;;
21168;SDS011;10742;51.816;8.662;2023-02-17T16:20:42;30.10;;;15.90;;
21168;SDS011;10742;51.816;8.662;2023-02-17T16:23:45;314.53;;;31.07;;
21168;SDS011;10742;51.816;8.662;2023-02-17T16:26:47;21.50;;;11.93;;
21168;SDS011;10742;51.816;8.662;2023-02-17T16:29:50;26.30;;;13.00;;
21168;SDS011;10742;51.816;8.662;2023-02-17T16:32:53;19.07;;;11.10;;
21168;SDS011;10742;51.816;8.662;2023-02-17T16:35:56;21.03;;;11.27;;
21168;SDS011;10742;51.816;8.662;2023-02-17T16:38:59;15.47;;;9.43;;
21168;SDS011;10742;51.816;8.662;2023-02-17T16:42:12;14.50;;;7.77;;
21168;SDS011;10742;51.816;8.662;2023-02-17T16:45:17;16.37;;;8.17;;
21168;SDS011;10742;51.816;8.662;2023-02-17T16:48:22;20.03;;;11.20;;
21168;SDS011;10742;51.816;8.662;2023-02-17T16:51:26;15.83;;;8.73;;
21168;SDS011;10742;51.816;8.662;2023-02-17T16:54:29;28.43;;;11.33;;
21168;SDS011;10742;51.816;8.662;2023-02-17T16:57:34;20.23;;;11.33;;
21168;SDS011;10742;51.816;8.662;2023-02-17T17:00:37;26.30;;;13.90;;
21168;SDS011;10742;51.816;8.662;2023-02-17T17:03:39;18.00;;;10.10;;
21168;SDS011;10742;51.816;8.662;2023-02-17T17:06:48;16.63;;;9.37;;
21168;SDS011;10742;51.816;8.662;2023-02-17T17:09:52;18.23;;;9.43;;
21168;SDS011;10742;51.816;8.662;2023-02-17T17:13:14;15.87;;;8.90;;
21168;SDS011;10742;51.816;8.662;2023-02-17T17:16:18;17.33;;;9.17;;
21168;SDS011;10742;51.816;8.662;2023-02-17T17:19:32;13.40;;;7.93;;
21168;SDS011;10742;51.816;8.662;2023-02-17T17:22:35;18.03;;;8.70;;
21168;SDS011;10742;51.816;8.662;2023-02-17T17:25:38;15.47;;;8.60;;
21168;SDS011;10742;51.816;8.662;2023-02-17T17:28:42;15.23;;;8.37;;
21168;SDS011;10742;51.816;8.662;2023-02-17T17:31:45;16.97;;;9.23;;
21168;SDS011;10742;51.816;8.662;2023-02-17T17:34:48;17.40;;;8.93;;
21168;SDS011;10742;51.816;8.662;2023-02-17T17:37:54;15.77;;;8.50;;
21168;SDS011;10742;51.816;8.662;2023-02-17T17:40:58;16.53;;;8.13;;
21168;SDS011;10742;51.816;8.662;2023-02-17T17:44:00;17.67;;;8.03;;
21168;SDS011;10742;51.816;8.662;2023-02-17T17:47:03;15.40;;;8.17;;
21168;SDS011;10742;51.816;8.662;2023-02-17T17:50:08;21.40;;;8.27;;
21168;SDS011;10742;51.816;8.662;2023-02-17T17:53:18;13.73;;;7.90;;
21168;SDS011;10742;51.816;8.662;2023-02-17T17:56:23;14.93;;;7.73;;
21168;SDS011;10742;51.816;8.662;2023-02-17T17:59:27;17.17;;;8.17;;
21168;SDS011;10742;51.816;8.662;2023-02-17T18:02:30;17.03;;;8.77;;
21168;SDS011;10742;51.816;8.662;2023-02-17T18:05:32;15.73;;;8.47;;
21168;SDS011;10742;51.816;8.662;2023-02-17T18:08:37;22.20;;;10.47;;
21168;SDS011;10742;51.816;8.662;2023-02-17T18:11:40;22.37;;;9.67;;
21168;SDS011;10742;51.816;8.662;2023-02-17T18:14:44;17.53;;;8.83;;
21168;SDS011;10742;51.816;8.662;2023-02-17T18:17:49;20.90;;;9.53;;
21168;SDS011;10742;51.816;8.662;2023-02-17T18:20:53;18.07;;;9.47;;
21168;SDS011;10742;51.816;8.662;2023-02-17T18:23:55;18.77;;;9.13;;
21168;SDS011;10742;51.816;8.662;2023-02-17T18:26:59;18.47;;;9.17;;
21168;SDS011;10742;51.816;8.662;2023-02-17T18:30:02;17.53;;;8.30;;
21168;SDS011;10742;51.816;8.662;2023-02-17T18:33:04;14.83;;;8.20;;
21168;SDS011;10742;51.816;8.662;2023-02-17T18:36:11;20.13;;;9.17;;
21168;SDS011;10742;51.816;8.662;2023-02-17T18:39:16;15.73;;;8.30;;
21168;SDS011;10742;51.816;8.662;2023-02-17T18:42:18;14.47;;;8.13;;
21168;SDS011;10742;51.816;8.662;2023-02-17T18:45:21;14.03;;;8.13;;
21168;SDS011;10742;51.816;8.662;2023-02-17T18:48:24;17.53;;;8.53;;
21168;SDS011;10742;51.816;8.662;2023-02-17T18:51:28;16.63;;;8.57;;
21168;SDS011;10742;51.816;8.662;2023-02-17T18:54:30;18.07;;;9.33;;
21168;SDS011;10742;51.816;8.662;2023-02-17T18:57:33;24.27;;;10.87;;
21168;SDS011;10742;51.816;8.662;2023-02-17T19:00:35;23.90;;;10.67;;
21168;SDS011;10742;51.816;8.662;2023-02-17T19:03:38;22.97;;;10.07;;
21168;SDS011;10742;51.816;8.662;2023-02-17T19:06:40;15.87;;;8.30;;
21168;SDS011;10742;51.816;8.662;2023-02-17T19:09:43;17.07;;;8.77;;
21168;SDS011;10742;51.816;8.662;2023-02-17T19:12:45;15.77;;;8.00;;
21168;SDS011;10742;51.816;8.662;2023-02-17T19:15:48;14.50;;;8.07;;
21168;SDS011;10742;51.816;8.662;2023-02-17T19:18:51;15.37;;;8.80;;
21168;SDS011;10742;51.816;8.662;2023-02-17T19:21:54;15.53;;;8.20;;
21168;SDS011;10742;51.816;8.662;2023-02-17T19:24:56;15.63;;;8.90;;
21168;SDS011;10742;51.816;8.662;2023-02-17T19:27:59;16.03;;;6.33;;
21168;SDS011;10742;51.816;8.662;2023-02-17T19:31:04;14.57;;;4.67;;
21168;SDS011;10742;51.816;8.662;2023-02-17T19:34:08;10.10;;;3.60;;
21168;SDS011;10742;51.816;8.662;2023-02-17T19:37:10;15.60;;;3.97;;
21168;SDS011;10742;51.816;8.662;2023-02-17T19:40:12;12.57;;;3.50;;
21168;SDS011;10742;51.816;8.662;2023-02-17T19:43:15;10.80;;;3.40;;
21168;SDS011;10742;51.816;8.662;2023-02-17T19:46:18;12.23;;;3.77;;
21168;SDS011;10742;51.816;8.662;2023-02-17T19:49:23;13.27;;;3.83;;
21168;SDS011;10742;51.816;8.662;2023-02-17T19:52:26;16.13;;;3.80;;
21168;SDS011;10742;51.816;8.662;2023-02-17T19:55:28;14.50;;;4.03;;
21168;SDS011;10742;51.816;8.662;2023-02-17T19:58:31;12.20;;;3.60;;
21168;SDS011;10742;51.816;8.662;2023-02-17T20:01:33;16.30;;;4.27;;
21168;SDS011;10742;51.816;8.662;2023-02-17T20:04:36;54.93;;;7.40;;
21168;SDS011;10742;51.816;8.662;2023-02-17T20:07:39;15.23;;;3.80;;
21168;SDS011;10742;51.816;8.662;2023-02-17T20:10:41;14.23;;;4.57;;
21168;SDS011;10742;51.816;8.662;2023-02-17T20:13:43;15.77;;;3.93;;
21168;SDS011;10742;51.816;8.662;2023-02-17T20:16:47;10.70;;;3.50;;
21168;SDS011;10742;51.816;8.662;2023-02-17T20:19:50;12.60;;;3.50;;
21168;SDS011;10742;51.816;8.662;2023-02-17T20:22:53;11.60;;;3.40;;
21168;SDS011;10742;51.816;8.662;2023-02-17T20:25:56;17.83;;;3.30;;
21168;SDS011;10742;51.816;8.662;2023-02-17T20:28:59;11.83;;;3.30;;
21168;SDS011;10742;51.816;8.662;2023-02-17T20:32:02;13.97;;;3.60;;
21168;SDS011;10742;51.816;8.662;2023-02-17T20:35:06;11.63;;;3.23;;
21168;SDS011;10742;51.816;8.662;2023-02-17T20:38:10;14.53;;;3.97;;
21168;SDS011;10742;51.816;8.662;2023-02-17T20:41:14;10.03;;;3.30;;